NKS828 MDLR-MKJP
Flight info
| Callsign | NKS828 |
|---|---|
| Flight time | 1h 22m |
| Altitude | 34000 |
| Route | KERSO2K KERSO DCT KEBET/N0381F230 G633 MLY |
| Aircraft | A320/M-SDE3FGHIRWY/LB1 |
Departure
| Time | 2026-04-28 11:32 |
|---|---|
| Airport | Casa De Campo International Airport (MDLR) |
Arrival
| Time | 2026-04-28 12:54 |
|---|---|
| Airport | Norman Manley International Airport (MKJP) |
| Time | Latitude | Longitude | Altitude | Speed | Heading |
|---|---|---|---|---|---|
| 2026-04-28 11:32 | 18.48752 | -68.85911 | 3539 ft | 250 kts | 304° |
| 2026-04-28 11:32 | 18.49702 | -68.87459 | 4190 ft | 253 kts | 310° |
| 2026-04-28 11:32 | 18.50499 | -68.88221 | 4572 ft | 255 kts | 328° |
| 2026-04-28 11:32 | 18.52726 | -68.89210 | 4999 ft | 257 kts | 342° |
| 2026-04-28 11:33 | 18.54408 | -68.89818 | 5005 ft | 256 kts | 341° |
| 2026-04-28 11:33 | 18.55558 | -68.90233 | 5013 ft | 270 kts | 342° |
| 2026-04-28 11:33 | 18.57182 | -68.90816 | 5014 ft | 275 kts | 341° |
| 2026-04-28 11:33 | 18.58868 | -68.91413 | 5025 ft | 276 kts | 342° |
| 2026-04-28 11:34 | 18.60672 | -68.92058 | 5012 ft | 276 kts | 341° |
| 2026-04-28 11:34 | 18.62488 | -68.92724 | 5014 ft | 276 kts | 341° |
| 2026-04-28 11:34 | 18.64264 | -68.93496 | 5014 ft | 277 kts | 330° |
| 2026-04-28 11:34 | 18.65765 | -68.94749 | 5016 ft | 278 kts | 312° |
| 2026-04-28 11:35 | 18.66865 | -68.96417 | 5016 ft | 278 kts | 298° |
| 2026-04-28 11:35 | 18.67797 | -68.98203 | 5017 ft | 278 kts | 299° |
| 2026-04-28 11:35 | 18.68732 | -68.99990 | 5021 ft | 278 kts | 299° |
| 2026-04-28 11:35 | 18.69665 | -69.01773 | 5020 ft | 278 kts | 299° |
| 2026-04-28 11:36 | 18.70614 | -69.03577 | 5508 ft | 282 kts | 299° |
| 2026-04-28 11:36 | 18.71567 | -69.05388 | 6417 ft | 283 kts | 298° |
| 2026-04-28 11:36 | 18.72524 | -69.07205 | 7222 ft | 284 kts | 298° |
| 2026-04-28 11:36 | 18.73487 | -69.09037 | 7998 ft | 287 kts | 298° |
| 2026-04-28 11:37 | 18.74456 | -69.10884 | 8770 ft | 289 kts | 298° |
| 2026-04-28 11:37 | 18.75435 | -69.12751 | 9531 ft | 292 kts | 297° |
| 2026-04-28 11:37 | 18.76424 | -69.14638 | 10231 ft | 296 kts | 297° |
| 2026-04-28 11:37 | 18.77453 | -69.16601 | 10471 ft | 317 kts | 297° |
| 2026-04-28 11:38 | 18.78554 | -69.18702 | 10712 ft | 334 kts | 297° |
| 2026-04-28 11:38 | 18.79686 | -69.20870 | 11241 ft | 340 kts | 297° |
| 2026-04-28 11:38 | 18.80836 | -69.23067 | 11873 ft | 344 kts | 297° |
| 2026-04-28 11:38 | 18.81999 | -69.25285 | 12505 ft | 346 kts | 297° |
| 2026-04-28 11:39 | 18.83170 | -69.27516 | 13136 ft | 349 kts | 297° |
| 2026-04-28 11:39 | 18.84346 | -69.29762 | 13762 ft | 351 kts | 297° |
| 2026-04-28 11:39 | 18.85528 | -69.32033 | 14309 ft | 354 kts | 297° |
| 2026-04-28 11:39 | 18.86715 | -69.34323 | 14847 ft | 357 kts | 297° |
| 2026-04-28 11:40 | 18.87911 | -69.36628 | 15367 ft | 359 kts | 297° |
| 2026-04-28 11:40 | 18.89116 | -69.38949 | 15899 ft | 362 kts | 297° |
| 2026-04-28 11:40 | 18.90331 | -69.41284 | 16427 ft | 364 kts | 297° |
| 2026-04-28 11:40 | 18.91554 | -69.43638 | 16953 ft | 367 kts | 296° |
| 2026-04-28 11:41 | 18.92787 | -69.46010 | 17449 ft | 370 kts | 296° |
| 2026-04-28 11:41 | 18.94030 | -69.48400 | 17967 ft | 372 kts | 296° |
| 2026-04-28 11:41 | 18.95279 | -69.50805 | 18449 ft | 375 kts | 296° |
| 2026-04-28 11:41 | 18.96536 | -69.53231 | 18893 ft | 377 kts | 296° |
| 2026-04-28 11:42 | 18.97796 | -69.55665 | 19359 ft | 379 kts | 296° |
| 2026-04-28 11:42 | 18.99061 | -69.58112 | 19816 ft | 380 kts | 296° |
| 2026-04-28 11:42 | 19.00330 | -69.60571 | 20268 ft | 382 kts | 295° |
| 2026-04-28 11:42 | 19.01596 | -69.63023 | 20705 ft | 384 kts | 295° |
| 2026-04-28 11:43 | 19.02883 | -69.65509 | 21137 ft | 386 kts | 295° |
| 2026-04-28 11:43 | 19.03949 | -69.68099 | 21551 ft | 384 kts | 284° |
| 2026-04-28 11:43 | 19.04494 | -69.70851 | 21965 ft | 383 kts | 272° |
| 2026-04-28 11:43 | 19.04489 | -69.73659 | 22392 ft | 381 kts | 261° |
| 2026-04-28 11:44 | 19.04083 | -69.76430 | 22814 ft | 382 kts | 259° |
| 2026-04-28 11:44 | 19.03660 | -69.79210 | 23244 ft | 384 kts | 259° |
| 2026-04-28 11:44 | 19.03244 | -69.82006 | 23656 ft | 386 kts | 259° |
| 2026-04-28 11:44 | 19.02832 | -69.84818 | 24016 ft | 387 kts | 259° |
| 2026-04-28 11:45 | 19.02423 | -69.87630 | 24392 ft | 388 kts | 259° |
| 2026-04-28 11:45 | 19.02012 | -69.90451 | 24769 ft | 389 kts | 259° |
| 2026-04-28 11:45 | 19.01595 | -69.93281 | 25156 ft | 389 kts | 259° |
| 2026-04-28 11:45 | 19.01176 | -69.96108 | 25535 ft | 390 kts | 259° |
| 2026-04-28 11:46 | 19.00755 | -69.98940 | 25903 ft | 391 kts | 259° |
| 2026-04-28 11:46 | 19.00332 | -70.01778 | 26251 ft | 392 kts | 259° |
| 2026-04-28 11:46 | 18.99903 | -70.04631 | 26610 ft | 393 kts | 259° |
| 2026-04-28 11:46 | 18.99476 | -70.07479 | 26963 ft | 393 kts | 259° |
| 2026-04-28 11:47 | 18.99048 | -70.10333 | 27300 ft | 394 kts | 259° |
| 2026-04-28 11:47 | 18.98619 | -70.13196 | 27641 ft | 395 kts | 259° |
| 2026-04-28 11:47 | 18.98188 | -70.16070 | 27976 ft | 396 kts | 259° |
| 2026-04-28 11:47 | 18.97760 | -70.18941 | 28320 ft | 396 kts | 260° |
| 2026-04-28 11:48 | 18.97330 | -70.21820 | 28691 ft | 397 kts | 259° |
| 2026-04-28 11:48 | 18.96897 | -70.24707 | 29057 ft | 398 kts | 259° |
| 2026-04-28 11:48 | 18.96462 | -70.27590 | 29422 ft | 399 kts | 259° |
| 2026-04-28 11:48 | 18.96023 | -70.30496 | 29804 ft | 400 kts | 259° |
| 2026-04-28 11:49 | 18.95584 | -70.33395 | 30168 ft | 401 kts | 259° |
| 2026-04-28 11:49 | 18.95143 | -70.36306 | 30477 ft | 401 kts | 259° |
| 2026-04-28 11:49 | 18.94703 | -70.39213 | 30862 ft | 400 kts | 259° |
| 2026-04-28 11:49 | 18.94268 | -70.42101 | 31243 ft | 398 kts | 259° |
| 2026-04-28 11:50 | 18.93833 | -70.44989 | 31624 ft | 397 kts | 259° |
| 2026-04-28 11:50 | 18.93399 | -70.47861 | 32058 ft | 395 kts | 259° |
| 2026-04-28 11:50 | 18.92965 | -70.50722 | 32424 ft | 394 kts | 258° |
| 2026-04-28 11:50 | 18.92530 | -70.53581 | 32791 ft | 394 kts | 258° |
| 2026-04-28 11:51 | 18.92095 | -70.56426 | 33186 ft | 393 kts | 258° |
| 2026-04-28 11:51 | 18.91659 | -70.59273 | 33574 ft | 392 kts | 258° |
| 2026-04-28 11:51 | 18.91226 | -70.62104 | 33984 ft | 391 kts | 258° |
| 2026-04-28 11:51 | 18.90791 | -70.64942 | 34109 ft | 391 kts | 258° |
| 2026-04-28 11:52 | 18.89923 | -70.70592 | 34130 ft | 390 kts | 258° |
| 2026-04-28 11:52 | 18.89060 | -70.76241 | 34125 ft | 389 kts | 258° |
| 2026-04-28 11:53 | 18.88195 | -70.81888 | 34124 ft | 389 kts | 258° |
| 2026-04-28 11:53 | 18.87330 | -70.87522 | 34126 ft | 388 kts | 258° |
| 2026-04-28 11:54 | 18.86459 | -70.93145 | 34128 ft | 389 kts | 258° |
| 2026-04-28 11:54 | 18.85585 | -70.98781 | 34128 ft | 389 kts | 257° |
| 2026-04-28 11:55 | 18.84712 | -71.04419 | 34116 ft | 389 kts | 258° |
| 2026-04-28 11:55 | 18.83845 | -71.10052 | 34116 ft | 389 kts | 258° |
| 2026-04-28 11:56 | 18.82973 | -71.15683 | 34108 ft | 389 kts | 258° |
| 2026-04-28 11:56 | 18.82095 | -71.21317 | 34109 ft | 389 kts | 257° |
| 2026-04-28 11:57 | 18.81211 | -71.26977 | 34092 ft | 392 kts | 258° |
| 2026-04-28 11:57 | 18.80323 | -71.32656 | 34085 ft | 392 kts | 258° |
| 2026-04-28 11:58 | 18.79428 | -71.38337 | 34086 ft | 392 kts | 258° |
| 2026-04-28 11:58 | 18.78540 | -71.44019 | 34089 ft | 394 kts | 258° |
| 2026-04-28 11:59 | 18.77644 | -71.49711 | 34087 ft | 393 kts | 257° |
| 2026-04-28 11:59 | 18.76745 | -71.55396 | 34090 ft | 393 kts | 258° |
| 2026-04-28 12:00 | 18.75851 | -71.61079 | 34078 ft | 392 kts | 257° |
| 2026-04-28 12:00 | 18.74951 | -71.66754 | 34079 ft | 392 kts | 257° |
| 2026-04-28 12:01 | 18.74045 | -71.72429 | 34071 ft | 392 kts | 257° |
| 2026-04-28 12:01 | 18.73143 | -71.78108 | 34071 ft | 392 kts | 257° |
| 2026-04-28 12:02 | 18.72242 | -71.83782 | 34072 ft | 391 kts | 257° |
| 2026-04-28 12:02 | 18.71334 | -71.89483 | 34065 ft | 392 kts | 257° |
| 2026-04-28 12:03 | 18.70427 | -71.95155 | 34059 ft | 392 kts | 257° |
| 2026-04-28 12:03 | 18.69520 | -72.00811 | 34053 ft | 391 kts | 257° |
| 2026-04-28 12:04 | 18.68615 | -72.06464 | 34056 ft | 391 kts | 257° |
| 2026-04-28 12:04 | 18.67703 | -72.12129 | 34045 ft | 392 kts | 257° |
| 2026-04-28 12:05 | 18.66786 | -72.17787 | 34046 ft | 392 kts | 257° |
| 2026-04-28 12:05 | 18.65871 | -72.23446 | 34062 ft | 391 kts | 257° |
| 2026-04-28 12:06 | 18.64954 | -72.29102 | 34063 ft | 391 kts | 257° |
| 2026-04-28 12:06 | 18.64040 | -72.34756 | 34064 ft | 391 kts | 257° |
| 2026-04-28 12:07 | 18.63122 | -72.40417 | 34063 ft | 392 kts | 257° |
| 2026-04-28 12:07 | 18.62201 | -72.46076 | 34060 ft | 392 kts | 257° |
| 2026-04-28 12:08 | 18.61275 | -72.51750 | 34058 ft | 394 kts | 257° |
| 2026-04-28 12:08 | 18.60350 | -72.57441 | 34051 ft | 394 kts | 257° |
| 2026-04-28 12:09 | 18.59421 | -72.63134 | 34044 ft | 394 kts | 257° |
| 2026-04-28 12:09 | 18.58485 | -72.68827 | 34047 ft | 394 kts | 257° |
| 2026-04-28 12:10 | 18.57699 | -72.73597 | 34045 ft | 394 kts | 257° |
| 2026-04-28 12:10 | 18.56762 | -72.79291 | 34046 ft | 394 kts | 257° |
| 2026-04-28 12:11 | 18.55823 | -72.84986 | 34051 ft | 395 kts | 257° |
| 2026-04-28 12:11 | 18.54879 | -72.90683 | 34052 ft | 395 kts | 257° |
| 2026-04-28 12:12 | 18.53937 | -72.96378 | 34065 ft | 395 kts | 257° |
| 2026-04-28 12:12 | 18.52992 | -73.02079 | 34063 ft | 395 kts | 257° |
| 2026-04-28 12:13 | 18.52048 | -73.07790 | 34062 ft | 395 kts | 257° |
| 2026-04-28 12:13 | 18.51102 | -73.13499 | 34062 ft | 396 kts | 257° |
| 2026-04-28 12:14 | 18.50148 | -73.19205 | 34063 ft | 395 kts | 257° |
| 2026-04-28 12:14 | 18.49189 | -73.24904 | 34059 ft | 395 kts | 257° |
| 2026-04-28 12:15 | 18.48233 | -73.30613 | 34059 ft | 396 kts | 257° |
| 2026-04-28 12:15 | 18.47277 | -73.36334 | 34059 ft | 397 kts | 257° |
| 2026-04-28 12:16 | 18.46319 | -73.42066 | 34061 ft | 398 kts | 257° |
| 2026-04-28 12:16 | 18.45346 | -73.47837 | 34062 ft | 397 kts | 257° |
| 2026-04-28 12:17 | 18.44370 | -73.53560 | 34062 ft | 397 kts | 257° |
| 2026-04-28 12:17 | 18.43399 | -73.59290 | 34062 ft | 397 kts | 257° |
| 2026-04-28 12:18 | 18.42427 | -73.65016 | 34062 ft | 397 kts | 257° |
| 2026-04-28 12:18 | 18.41453 | -73.70761 | 34067 ft | 399 kts | 258° |
| 2026-04-28 12:19 | 18.40479 | -73.76524 | 34057 ft | 399 kts | 257° |
| 2026-04-28 12:19 | 18.39496 | -73.82280 | 34069 ft | 400 kts | 257° |
| 2026-04-28 12:20 | 18.38505 | -73.88048 | 34065 ft | 400 kts | 257° |
| 2026-04-28 12:20 | 18.37520 | -73.93817 | 34069 ft | 400 kts | 257° |
| 2026-04-28 12:21 | 18.36539 | -73.99584 | 34068 ft | 400 kts | 257° |
| 2026-04-28 12:21 | 18.35549 | -74.05352 | 34066 ft | 402 kts | 258° |
| 2026-04-28 12:22 | 18.34550 | -74.11142 | 34064 ft | 402 kts | 257° |
| 2026-04-28 12:22 | 18.33555 | -74.16941 | 34067 ft | 403 kts | 258° |
| 2026-04-28 12:23 | 18.32560 | -74.22735 | 34053 ft | 403 kts | 257° |
| 2026-04-28 12:23 | 18.31544 | -74.28574 | 34051 ft | 403 kts | 257° |
| 2026-04-28 12:24 | 18.30544 | -74.34331 | 34050 ft | 403 kts | 257° |
| 2026-04-28 12:24 | 18.29535 | -74.40181 | 34051 ft | 405 kts | 258° |
| 2026-04-28 12:25 | 18.28518 | -74.46016 | 34053 ft | 405 kts | 258° |
| 2026-04-28 12:25 | 18.27501 | -74.51851 | 34047 ft | 405 kts | 258° |
| 2026-04-28 12:26 | 18.26514 | -74.57506 | 34038 ft | 405 kts | 258° |
| 2026-04-28 12:26 | 18.25503 | -74.63301 | 34045 ft | 400 kts | 257° |
| 2026-04-28 12:27 | 18.24512 | -74.69085 | 34047 ft | 405 kts | 258° |
| 2026-04-28 12:27 | 18.23656 | -74.74949 | 34049 ft | 406 kts | 259° |
| 2026-04-28 12:28 | 18.22836 | -74.80831 | 34043 ft | 406 kts | 259° |
| 2026-04-28 12:28 | 18.21997 | -74.86680 | 33799 ft | 398 kts | 259° |
| 2026-04-28 12:29 | 18.21168 | -74.92324 | 33280 ft | 384 kts | 259° |
| 2026-04-28 12:29 | 18.20759 | -74.95086 | 33042 ft | 381 kts | 259° |
| 2026-04-28 12:29 | 18.20355 | -74.97831 | 32777 ft | 379 kts | 259° |
| 2026-04-28 12:30 | 18.19951 | -75.00558 | 32534 ft | 376 kts | 259° |
| 2026-04-28 12:30 | 18.19549 | -75.03249 | 32221 ft | 370 kts | 258° |
| 2026-04-28 12:30 | 18.19149 | -75.05914 | 31821 ft | 367 kts | 258° |
| 2026-04-28 12:30 | 18.18755 | -75.08552 | 31417 ft | 364 kts | 258° |
| 2026-04-28 12:31 | 18.18364 | -75.11168 | 31035 ft | 361 kts | 258° |
| 2026-04-28 12:31 | 18.17978 | -75.13763 | 30654 ft | 358 kts | 258° |
| 2026-04-28 12:31 | 18.17597 | -75.16340 | 30275 ft | 356 kts | 258° |
| 2026-04-28 12:31 | 18.17216 | -75.18903 | 29865 ft | 353 kts | 258° |
| 2026-04-28 12:32 | 18.16837 | -75.21441 | 29497 ft | 349 kts | 258° |
| 2026-04-28 12:32 | 18.16467 | -75.23951 | 29141 ft | 346 kts | 258° |
| 2026-04-28 12:32 | 18.16099 | -75.26436 | 28795 ft | 342 kts | 258° |
| 2026-04-28 12:32 | 18.15732 | -75.28892 | 28450 ft | 338 kts | 258° |
| 2026-04-28 12:33 | 18.15369 | -75.31320 | 28120 ft | 334 kts | 259° |
| 2026-04-28 12:33 | 18.15010 | -75.33725 | 27784 ft | 331 kts | 259° |
| 2026-04-28 12:33 | 18.14655 | -75.36101 | 27448 ft | 327 kts | 259° |
| 2026-04-28 12:33 | 18.14302 | -75.38450 | 27118 ft | 324 kts | 259° |
| 2026-04-28 12:34 | 18.13952 | -75.40778 | 26788 ft | 322 kts | 259° |
| 2026-04-28 12:34 | 18.13601 | -75.43095 | 26457 ft | 321 kts | 259° |
| 2026-04-28 12:34 | 18.13252 | -75.45405 | 26117 ft | 320 kts | 259° |
| 2026-04-28 12:34 | 18.12903 | -75.47712 | 25769 ft | 319 kts | 259° |
| 2026-04-28 12:35 | 18.12558 | -75.50007 | 25422 ft | 318 kts | 260° |
| 2026-04-28 12:35 | 18.12217 | -75.52306 | 25070 ft | 318 kts | 260° |
| 2026-04-28 12:35 | 18.11875 | -75.54596 | 24717 ft | 317 kts | 260° |
| 2026-04-28 12:35 | 18.11530 | -75.56882 | 24357 ft | 316 kts | 260° |
| 2026-04-28 12:36 | 18.11182 | -75.59165 | 23996 ft | 316 kts | 260° |
| 2026-04-28 12:36 | 18.10834 | -75.61447 | 23627 ft | 316 kts | 261° |
| 2026-04-28 12:36 | 18.10482 | -75.63763 | 23211 ft | 316 kts | 261° |
| 2026-04-28 12:36 | 18.10143 | -75.66009 | 22848 ft | 315 kts | 261° |
| 2026-04-28 12:37 | 18.09801 | -75.68281 | 22477 ft | 314 kts | 261° |
| 2026-04-28 12:37 | 18.09461 | -75.70549 | 22114 ft | 313 kts | 261° |
| 2026-04-28 12:37 | 18.09121 | -75.72803 | 21747 ft | 312 kts | 261° |
| 2026-04-28 12:37 | 18.08774 | -75.75083 | 21371 ft | 312 kts | 261° |
| 2026-04-28 12:38 | 18.08432 | -75.77335 | 21013 ft | 312 kts | 261° |
| 2026-04-28 12:38 | 18.08089 | -75.79580 | 20642 ft | 312 kts | 261° |
| 2026-04-28 12:38 | 18.07743 | -75.81831 | 20279 ft | 312 kts | 261° |
| 2026-04-28 12:38 | 18.07398 | -75.84081 | 19908 ft | 312 kts | 261° |
| 2026-04-28 12:39 | 18.07056 | -75.86337 | 19540 ft | 313 kts | 261° |
| 2026-04-28 12:39 | 18.06710 | -75.88597 | 19169 ft | 314 kts | 261° |
| 2026-04-28 12:39 | 18.06364 | -75.90863 | 18796 ft | 315 kts | 261° |
| 2026-04-28 12:39 | 18.06017 | -75.93140 | 18425 ft | 316 kts | 261° |
| 2026-04-28 12:40 | 18.05671 | -75.95417 | 18085 ft | 316 kts | 261° |
| 2026-04-28 12:40 | 18.05318 | -75.97734 | 18042 ft | 324 kts | 261° |
| 2026-04-28 12:40 | 18.04956 | -76.00089 | 17696 ft | 329 kts | 261° |
| 2026-04-28 12:40 | 18.04584 | -76.02506 | 16808 ft | 339 kts | 261° |
| 2026-04-28 12:41 | 18.04212 | -76.04925 | 16385 ft | 332 kts | 260° |
| 2026-04-28 12:41 | 18.03773 | -76.07283 | 15994 ft | 326 kts | 252° |
| 2026-04-28 12:41 | 18.02810 | -76.09406 | 15588 ft | 321 kts | 235° |
| 2026-04-28 12:41 | 18.01329 | -76.11127 | 15182 ft | 317 kts | 219° |
| 2026-04-28 12:42 | 17.99546 | -76.12460 | 14774 ft | 314 kts | 214° |
| 2026-04-28 12:42 | 17.97756 | -76.13753 | 14371 ft | 311 kts | 214° |
| 2026-04-28 12:42 | 17.95982 | -76.15036 | 13978 ft | 308 kts | 214° |
| 2026-04-28 12:42 | 17.94229 | -76.16313 | 13553 ft | 306 kts | 214° |
| 2026-04-28 12:43 | 17.92492 | -76.17580 | 13148 ft | 302 kts | 214° |
| 2026-04-28 12:43 | 17.90777 | -76.18831 | 12759 ft | 299 kts | 214° |
| 2026-04-28 12:43 | 17.89081 | -76.20065 | 12378 ft | 295 kts | 213° |
| 2026-04-28 12:43 | 17.87403 | -76.21286 | 12000 ft | 292 kts | 213° |
| 2026-04-28 12:44 | 17.86303 | -76.22086 | 11750 ft | 290 kts | 213° |
| 2026-04-28 12:44 | 17.84653 | -76.23287 | 11378 ft | 287 kts | 213° |
| 2026-04-28 12:44 | 17.83018 | -76.24475 | 11014 ft | 285 kts | 213° |
| 2026-04-28 12:44 | 17.81398 | -76.25653 | 10650 ft | 282 kts | 212° |
| 2026-04-28 12:45 | 17.79788 | -76.26822 | 10285 ft | 280 kts | 213° |
| 2026-04-28 12:45 | 17.78191 | -76.27982 | 9928 ft | 278 kts | 212° |
| 2026-04-28 12:45 | 17.76617 | -76.29152 | 9544 ft | 277 kts | 219° |
| 2026-04-28 12:45 | 17.75402 | -76.30708 | 9184 ft | 279 kts | 240° |
| 2026-04-28 12:46 | 17.74861 | -76.32657 | 8823 ft | 281 kts | 266° |
| 2026-04-28 12:46 | 17.75114 | -76.34727 | 8449 ft | 295 kts | 290° |
| 2026-04-28 12:46 | 17.75975 | -76.36715 | 8068 ft | 301 kts | 296° |
| 2026-04-28 12:46 | 17.76879 | -76.38694 | 7670 ft | 299 kts | 296° |
| 2026-04-28 12:47 | 17.77765 | -76.40635 | 7455 ft | 286 kts | 296° |
| 2026-04-28 12:47 | 17.78591 | -76.42457 | 7324 ft | 268 kts | 296° |
| 2026-04-28 12:47 | 17.79375 | -76.44182 | 6996 ft | 260 kts | 296° |
| 2026-04-28 12:47 | 17.80159 | -76.45905 | 6440 ft | 263 kts | 296° |
| 2026-04-28 12:48 | 17.80947 | -76.47646 | 5916 ft | 263 kts | 296° |
| 2026-04-28 12:48 | 17.81719 | -76.49355 | 5556 ft | 256 kts | 297° |
| 2026-04-28 12:48 | 17.82470 | -76.51020 | 5226 ft | 249 kts | 297° |
| 2026-04-28 12:48 | 17.83202 | -76.52643 | 4908 ft | 243 kts | 298° |
| 2026-04-28 12:49 | 17.83917 | -76.54230 | 4595 ft | 238 kts | 298° |
| 2026-04-28 12:49 | 17.84616 | -76.55783 | 4289 ft | 232 kts | 298° |
| 2026-04-28 12:49 | 17.85272 | -76.57284 | 4030 ft | 220 kts | 296° |
| 2026-04-28 12:49 | 17.85845 | -76.58734 | 3732 ft | 210 kts | 295° |
| 2026-04-28 12:50 | 17.86374 | -76.60117 | 3474 ft | 197 kts | 295° |
| 2026-04-28 12:50 | 17.86867 | -76.61414 | 3224 ft | 185 kts | 296° |
| 2026-04-28 12:50 | 17.87332 | -76.62638 | 3011 ft | 179 kts | 295° |
| 2026-04-28 12:50 | 17.87796 | -76.63852 | 2771 ft | 176 kts | 296° |
| 2026-04-28 12:51 | 17.88252 | -76.65032 | 2557 ft | 173 kts | 296° |
| 2026-04-28 12:51 | 17.88703 | -76.66200 | 2341 ft | 172 kts | 295° |
| 2026-04-28 12:51 | 17.89155 | -76.67365 | 2111 ft | 169 kts | 296° |
| 2026-04-28 12:51 | 17.89591 | -76.68486 | 1906 ft | 167 kts | 297° |
| 2026-04-28 12:52 | 17.90030 | -76.69622 | 1675 ft | 166 kts | 296° |
| 2026-04-28 12:52 | 17.90463 | -76.70743 | 1450 ft | 165 kts | 296° |
| 2026-04-28 12:52 | 17.90877 | -76.71868 | 1271 ft | 165 kts | 296° |
| 2026-04-28 12:52 | 17.91286 | -76.73006 | 990 ft | 168 kts | 297° |
| 2026-04-28 12:53 | 17.91729 | -76.74107 | 820 ft | 159 kts | 298° |
| 2026-04-28 12:53 | 17.92185 | -76.75147 | 597 ft | 158 kts | 296° |
| 2026-04-28 12:53 | 17.92575 | -76.76198 | 320 ft | 150 kts | 297° |
| 2026-04-28 12:53 | 17.92951 | -76.77204 | 124 ft | 148 kts | 296° |
| 2026-04-28 12:54 | 17.93339 | -76.78174 | 24 ft | 135 kts | 296° |
| 2026-04-28 12:54 | 17.93639 | -76.78922 | 15 ft | 74 kts | 290° |
| 2026-04-28 12:54 | 17.93724 | -76.79141 | 15 ft | 23 kts | 307° |
| 2026-04-28 12:54 | 17.93856 | -76.79242 | 14 ft | 18 kts | 340° |
| 2026-04-28 12:55 | 17.93886 | -76.79161 | 15 ft | 15 kts | 114° |
| 2026-04-28 12:55 | 17.93840 | -76.79056 | 15 ft | 17 kts | 109° |
| 2026-04-28 12:55 | 17.93800 | -76.78935 | 15 ft | 19 kts | 111° |
| 2026-04-28 12:55 | 17.93746 | -76.78803 | 14 ft | 21 kts | 112° |
| 2026-04-28 12:56 | 17.93693 | -76.78653 | 14 ft | 23 kts | 111° |
| 2026-04-28 12:56 | 17.93631 | -76.78500 | 14 ft | 23 kts | 112° |
| 2026-04-28 12:56 | 17.93573 | -76.78340 | 14 ft | 23 kts | 116° |
| 2026-04-28 12:56 | 17.93517 | -76.78198 | 14 ft | 17 kts | 87° |
| 2026-04-28 12:57 | 17.93585 | -76.78129 | 14 ft | 13 kts | 63° |
| 2026-04-28 12:57 | 17.93575 | -76.78062 | 14 ft | 4 kts | 101° |
| 2026-04-28 12:57 | 17.93572 | -76.78049 | 15 ft | 1 kts | 102° |